createdAt,value
2022-09-03T00:00:18.929Z,16.12
2022-09-03T00:03:03.889Z,16.09
2022-09-03T00:05:55.214Z,16.04
2022-09-03T00:08:36.634Z,16.04
2022-09-03T00:11:19.647Z,16.04
2022-09-03T00:13:53.502Z,16.00
2022-09-03T00:16:22.651Z,15.96
2022-09-03T00:19:03.331Z,15.95
2022-09-03T00:21:48.840Z,15.94
2022-09-03T00:24:18.297Z,15.92
2022-09-03T00:26:51.868Z,15.88
2022-09-03T00:29:24.308Z,15.87
2022-09-03T00:31:54.921Z,15.88
2022-09-03T00:34:41.437Z,15.89
2022-09-03T00:37:14.418Z,15.87
2022-09-03T00:39:42.916Z,15.85
2022-09-03T00:42:31.917Z,15.83
2022-09-03T00:45:08.964Z,15.81
2022-09-03T00:47:38.629Z,15.81
2022-09-03T00:50:22.380Z,15.81
2022-09-03T00:53:10.210Z,15.81
2022-09-03T00:56:00.886Z,15.82
2022-09-03T00:58:45.646Z,15.83
2022-09-03T01:01:26.360Z,15.80
2022-09-03T01:04:21.661Z,15.79
2022-09-03T01:07:16.188Z,15.76
2022-09-03T01:10:05.956Z,15.72
2022-09-03T01:12:44.007Z,15.71
2022-09-03T01:15:26.646Z,15.70
2022-09-03T01:18:03.396Z,15.67
2022-09-03T01:21:04.607Z,15.63
2022-09-03T01:24:02.809Z,15.58
2022-09-03T01:26:44.089Z,15.55
2022-09-03T01:29:39.991Z,15.57
2022-09-03T01:32:16.848Z,15.59
2022-09-03T01:34:58.022Z,15.58
2022-09-03T01:37:40.636Z,15.56
2022-09-03T01:40:52.488Z,15.58
2022-09-03T01:43:45.385Z,15.57
2022-09-03T01:46:30.372Z,15.56
2022-09-03T01:49:11.921Z,15.54
2022-09-03T01:51:38.579Z,15.48
2022-09-03T01:54:26.854Z,15.46
2022-09-03T01:57:36.610Z,15.49
2022-09-03T02:00:13.503Z,15.44
2022-09-03T02:02:48.017Z,15.40
2022-09-03T02:05:19.470Z,15.40
2022-09-03T02:07:47.833Z,15.37
2022-09-03T02:10:19.504Z,15.30
2022-09-03T02:12:51.530Z,15.26
2022-09-03T02:15:21.505Z,15.23
2022-09-03T02:17:54.626Z,15.26
2022-09-03T02:20:23.409Z,15.32
2022-09-03T02:22:50.962Z,15.30
2022-09-03T02:25:18.043Z,15.38
2022-09-03T02:27:46.137Z,15.37
2022-09-03T02:30:12.863Z,15.38
2022-09-03T02:32:39.866Z,15.41
2022-09-03T02:35:07.078Z,15.38
2022-09-03T02:37:34.241Z,15.35
2022-09-03T02:40:01.052Z,15.33
2022-09-03T02:42:27.884Z,15.33
2022-09-03T02:45:00.777Z,15.32
2022-09-03T02:47:32.094Z,15.30
2022-09-03T02:49:58.572Z,15.30
2022-09-03T02:52:25.162Z,15.24
2022-09-03T02:54:51.869Z,15.24
2022-09-03T02:57:20.104Z,15.26
2022-09-03T02:59:54.629Z,15.35
2022-09-03T03:02:21.285Z,15.33
2022-09-03T03:04:47.953Z,15.32
2022-09-03T03:07:14.563Z,15.30
2022-09-03T03:09:41.152Z,15.31
2022-09-03T03:12:10.336Z,15.31
2022-09-03T03:14:36.952Z,15.28
2022-09-03T03:17:03.883Z,15.27
2022-09-03T03:19:30.499Z,15.22
2022-09-03T03:21:57.105Z,15.14
2022-09-03T03:24:23.705Z,15.10
2022-09-03T03:26:50.808Z,15.12
2022-09-03T03:29:17.951Z,15.15
2022-09-03T03:31:44.865Z,15.17
2022-09-03T03:34:11.499Z,15.16
2022-09-03T03:36:38.190Z,15.14
2022-09-03T03:39:04.911Z,15.14
2022-09-03T03:41:34.332Z,15.12
2022-09-03T03:44:03.638Z,15.10
2022-09-03T03:46:33.295Z,15.08
2022-09-03T03:49:00.404Z,15.01
2022-09-03T03:51:27.396Z,14.97
2022-09-03T03:53:56.724Z,14.93
2022-09-03T03:56:24.821Z,14.89
2022-09-03T03:58:52.159Z,14.90
2022-09-03T04:01:24.911Z,14.86
2022-09-03T04:03:52.926Z,14.84
2022-09-03T04:06:22.704Z,14.84
2022-09-03T04:08:50.303Z,14.84
2022-09-03T04:11:20.266Z,14.88
2022-09-03T04:13:47.994Z,14.84
2022-09-03T04:16:20.686Z,14.77
2022-09-03T04:18:49.365Z,14.70
2022-09-03T04:21:22.147Z,14.66
2022-09-03T04:23:50.319Z,14.65
2022-09-03T04:26:22.068Z,14.66
2022-09-03T04:28:49.062Z,14.70
2022-09-03T04:31:18.726Z,14.71
2022-09-03T04:33:45.689Z,14.73
2022-09-03T04:36:17.775Z,14.75
2022-09-03T04:38:46.803Z,14.75
2022-09-03T04:41:23.019Z,14.77
2022-09-03T04:43:51.788Z,14.78
2022-09-03T04:46:20.232Z,14.74
2022-09-03T04:48:51.858Z,14.77
2022-09-03T04:51:21.369Z,14.75
2022-09-03T04:53:53.341Z,14.81
2022-09-03T04:56:23.710Z,14.82
2022-09-03T04:58:57.765Z,14.84
2022-09-03T05:01:26.627Z,14.81
2022-09-03T05:03:55.548Z,14.82
2022-09-03T05:06:22.140Z,14.78
2022-09-03T05:08:50.370Z,14.75
2022-09-03T05:11:18.012Z,14.74
2022-09-03T05:13:49.062Z,14.74
2022-09-03T05:16:16.430Z,14.70
2022-09-03T05:18:43.149Z,14.68
2022-09-03T05:21:14.407Z,14.66
2022-09-03T05:23:42.677Z,14.58
2022-09-03T05:26:18.460Z,14.54
2022-09-03T05:28:45.872Z,14.53
2022-09-03T05:31:15.260Z,14.56
2022-09-03T05:33:47.130Z,14.54
2022-09-03T05:36:19.103Z,14.58
2022-09-03T05:38:47.662Z,14.57
2022-09-03T05:41:17.372Z,14.57
2022-09-03T05:43:51.156Z,14.57
2022-09-03T05:46:18.347Z,14.55
2022-09-03T05:48:45.228Z,14.55
2022-09-03T05:51:16.371Z,14.59
2022-09-03T05:53:46.057Z,14.66
2022-09-03T05:56:18.825Z,14.74
2022-09-03T05:58:50.890Z,14.78
2022-09-03T06:01:20.202Z,14.81
2022-09-03T06:03:53.225Z,14.87
2022-09-03T06:06:24.811Z,14.89
2022-09-03T06:08:55.346Z,14.86
2022-09-03T06:11:28.706Z,14.79
2022-09-03T06:13:56.744Z,14.83
2022-09-03T06:16:30.644Z,14.86
2022-09-03T06:19:02.145Z,14.88
2022-09-03T06:21:29.347Z,14.90
2022-09-03T06:24:00.045Z,14.92
2022-09-03T06:26:28.756Z,14.90
2022-09-03T06:28:57.004Z,14.85
2022-09-03T06:31:24.549Z,14.81
2022-09-03T06:33:53.078Z,14.83
2022-09-03T06:36:20.567Z,14.89
2022-09-03T06:38:47.599Z,14.91
2022-09-03T06:41:21.385Z,14.99
2022-09-03T06:43:49.254Z,15.05
2022-09-03T06:46:18.880Z,15.09
2022-09-03T06:48:46.412Z,15.12
2022-09-03T06:51:18.786Z,15.12
2022-09-03T06:53:48.012Z,15.12
2022-09-03T06:56:17.346Z,15.21
2022-09-03T06:58:46.519Z,15.22
2022-09-03T07:01:19.291Z,15.30
2022-09-03T07:03:48.180Z,15.36
2022-09-03T07:06:21.784Z,15.38
2022-09-03T07:08:48.602Z,15.38
2022-09-03T07:11:22.051Z,15.45
2022-09-03T07:13:51.654Z,15.54
2022-09-03T07:16:20.819Z,15.57
2022-09-03T07:18:48.703Z,15.74
2022-09-03T07:21:27.336Z,15.94
2022-09-03T07:23:55.750Z,16.11
2022-09-03T07:26:36.974Z,16.21
2022-09-03T07:29:05.014Z,16.34
2022-09-03T07:31:34.185Z,16.51
2022-09-03T07:34:06.175Z,16.69
2022-09-03T07:36:43.014Z,16.98
2022-09-03T07:39:14.167Z,17.31
2022-09-03T07:41:44.131Z,17.47
2022-09-03T07:44:11.423Z,17.69
2022-09-03T07:46:38.902Z,17.87
2022-09-03T07:49:06.421Z,18.07
2022-09-03T07:51:37.365Z,18.26
2022-09-03T07:54:07.566Z,18.44
2022-09-03T07:56:35.863Z,18.44
2022-09-03T07:59:03.405Z,18.38
2022-09-03T08:01:34.206Z,18.35
2022-09-03T08:04:02.730Z,18.41
2022-09-03T08:06:31.010Z,18.52
2022-09-03T08:09:04.624Z,18.57
2022-09-03T08:11:35.250Z,18.68
2022-09-03T08:14:06.603Z,18.95
2022-09-03T08:16:53.760Z,19.10
2022-09-03T08:19:20.543Z,19.33
2022-09-03T08:21:47.382Z,19.45
2022-09-03T08:24:16.676Z,19.43
2022-09-03T08:26:49.068Z,19.45
2022-09-03T08:29:18.651Z,19.56
2022-09-03T08:31:45.555Z,19.76
2022-09-03T08:34:14.537Z,19.91
2022-09-03T08:36:44.539Z,19.89
2022-09-03T08:39:11.694Z,19.66
2022-09-03T08:41:53.596Z,19.60
2022-09-03T08:44:26.178Z,19.62
2022-09-03T08:47:17.550Z,19.71
2022-09-03T08:49:52.330Z,19.68
2022-09-03T08:52:33.777Z,19.64
2022-09-03T08:55:14.823Z,19.65
2022-09-03T08:57:46.713Z,19.68
2022-09-03T09:00:13.989Z,19.70
2022-09-03T09:03:21.425Z,19.67
2022-09-03T09:05:59.071Z,19.57
2022-09-03T09:08:36.232Z,19.53
2022-09-03T09:11:14.591Z,19.55
2022-09-03T09:13:54.380Z,19.53
2022-09-03T09:16:36.557Z,19.47
2022-09-03T09:19:28.074Z,19.40
2022-09-03T09:22:02.061Z,19.35
2022-09-03T09:24:37.899Z,19.32
2022-09-03T09:27:06.470Z,19.29
2022-09-03T09:29:36.768Z,19.32
2022-09-03T09:32:07.618Z,19.27
2022-09-03T09:34:38.316Z,19.45
2022-09-03T09:37:11.296Z,19.58
2022-09-03T09:39:38.214Z,19.71
2022-09-03T09:42:11.287Z,19.81
2022-09-03T09:44:40.005Z,19.93
2022-09-03T09:47:11.905Z,20.03
2022-09-03T09:49:51.854Z,20.09
2022-09-03T09:52:18.522Z,20.23
2022-09-03T09:54:46.739Z,20.36
2022-09-03T09:57:31.168Z,20.44
2022-09-03T10:00:13.470Z,20.57
2022-09-03T10:02:51.799Z,20.64
2022-09-03T10:05:26.753Z,20.88
2022-09-03T10:08:18.732Z,21.13
2022-09-03T10:10:49.794Z,21.50
2022-09-03T10:13:22.564Z,21.78
2022-09-03T10:15:55.752Z,21.85
2022-09-03T10:18:31.704Z,21.98
2022-09-03T10:21:05.095Z,22.10
2022-09-03T10:24:07.524Z,22.18
2022-09-03T10:26:36.609Z,22.21
2022-09-03T10:29:07.045Z,22.29
2022-09-03T10:32:03.699Z,22.61
2022-09-03T10:34:48.720Z,22.79
2022-09-03T10:37:19.690Z,22.90
2022-09-03T10:39:52.682Z,23.12
2022-09-03T10:42:37.518Z,23.31
2022-09-03T10:45:08.103Z,23.19
2022-09-03T10:48:04.293Z,23.30
2022-09-03T10:50:48.978Z,23.62
2022-09-03T10:53:24.912Z,23.74
2022-09-03T10:55:58.904Z,23.87
2022-09-03T10:58:47.151Z,23.94
2022-09-03T11:01:35.514Z,23.95
2022-09-03T11:04:15.237Z,24.15
2022-09-03T11:07:07.566Z,24.44
2022-09-03T11:09:40.438Z,24.55
2022-09-03T11:12:17.787Z,24.37
2022-09-03T11:14:56.102Z,24.11
2022-09-03T11:17:30.150Z,24.09
2022-09-03T11:20:14.555Z,24.11
2022-09-03T11:22:44.299Z,24.06
2022-09-03T11:25:13.983Z,24.07
2022-09-03T11:27:43.331Z,24.05
2022-09-03T11:30:22.189Z,24.02
2022-09-03T11:33:07.698Z,23.96
2022-09-03T11:35:34.296Z,23.89
2022-09-03T11:38:08.591Z,23.80
2022-09-03T11:40:38.183Z,23.87
2022-09-03T11:43:15.886Z,23.89
2022-09-03T11:45:42.572Z,23.95
2022-09-03T11:48:36.381Z,23.96
2022-09-03T11:51:04.385Z,23.98
2022-09-03T11:53:35.898Z,24.07
2022-09-03T11:56:05.549Z,24.14
2022-09-03T11:58:37.886Z,24.23
2022-09-03T12:01:16.233Z,24.07
2022-09-03T12:03:52.951Z,23.89
2022-09-03T12:06:43.182Z,23.69
2022-09-03T12:09:36.094Z,23.53
2022-09-03T12:12:14.668Z,23.34
2022-09-03T12:14:44.051Z,23.13
2022-09-03T12:17:23.408Z,22.98
2022-09-03T12:19:54.539Z,22.78
2022-09-03T12:22:31.384Z,22.48
2022-09-03T12:25:13.082Z,22.26
2022-09-03T12:27:42.979Z,22.03
2022-09-03T12:30:17.803Z,21.87
2022-09-03T12:32:45.465Z,21.73
2022-09-03T12:38:09.896Z,21.52
2022-09-03T12:43:38.795Z,21.11
2022-09-03T12:46:14.649Z,20.53
2022-09-03T12:52:07.326Z,18.77
2022-09-03T12:54:42.689Z,18.12
2022-09-03T12:57:20.898Z,17.76
2022-09-03T12:59:51.455Z,17.53
2022-09-03T13:02:23.971Z,17.36
2022-09-03T13:04:52.743Z,17.22
2022-09-03T13:07:33.549Z,17.11
2022-09-03T13:10:07.876Z,16.98
2022-09-03T13:12:52.437Z,16.91
2022-09-03T13:15:24.157Z,16.86
2022-09-03T13:18:10.508Z,16.79
2022-09-03T13:20:43.291Z,16.79
2022-09-03T13:23:33.239Z,16.78
2022-09-03T13:26:24.912Z,16.80
2022-09-03T13:29:24.448Z,16.83
2022-09-03T13:31:59.960Z,16.94
2022-09-03T13:34:36.085Z,17.14
2022-09-03T13:37:28.697Z,17.40
2022-09-03T13:40:04.068Z,17.62
2022-09-03T13:42:31.281Z,17.81
2022-09-03T13:45:16.890Z,18.14
2022-09-03T13:48:07.164Z,18.37
2022-09-03T13:51:12.263Z,18.49
2022-09-03T13:54:11.717Z,18.51
2022-09-03T13:56:47.580Z,18.38
2022-09-03T13:59:45.987Z,18.15
2022-09-03T14:02:34.308Z,18.00
2022-09-03T14:05:00.948Z,17.91
2022-09-03T14:07:58.620Z,17.82
2022-09-03T14:10:57.938Z,17.73
2022-09-03T14:13:41.243Z,17.66
2022-09-03T14:16:40.074Z,17.66
2022-09-03T14:19:17.841Z,17.68
2022-09-03T14:22:24.658Z,17.68
2022-09-03T14:24:56.026Z,17.66
2022-09-03T14:27:26.604Z,17.73
2022-09-03T14:29:59.428Z,17.85
2022-09-03T14:32:42.313Z,18.02
2022-09-03T14:35:19.495Z,18.17
2022-09-03T14:38:04.839Z,18.32
2022-09-03T14:40:56.308Z,18.45
2022-09-03T14:43:47.535Z,18.50
2022-09-03T14:46:37.199Z,18.60
2022-09-03T14:49:37.404Z,18.64
2022-09-03T14:52:09.919Z,18.61
2022-09-03T14:55:13.583Z,18.65
2022-09-03T14:57:48.879Z,18.67
2022-09-03T15:00:33.418Z,18.69
2022-09-03T15:03:24.749Z,18.72
2022-09-03T15:06:12.166Z,18.77
2022-09-03T15:08:47.717Z,18.88
2022-09-03T15:11:43.410Z,18.99
2022-09-03T15:14:24.636Z,19.28
2022-09-03T15:16:56.263Z,19.52
2022-09-03T15:19:36.278Z,19.60
2022-09-03T15:22:30.854Z,19.85
2022-09-03T15:25:12.419Z,20.22
2022-09-03T15:27:59.973Z,20.71
2022-09-03T15:30:36.952Z,21.14
2022-09-03T15:33:11.366Z,21.09
2022-09-03T15:36:02.838Z,20.97
2022-09-03T15:38:32.291Z,20.90
2022-09-03T15:41:08.379Z,20.89
2022-09-03T15:43:35.244Z,20.99
2022-09-03T15:46:13.782Z,21.28
2022-09-03T15:49:02.898Z,21.76
2022-09-03T15:51:54.804Z,22.31
2022-09-03T15:54:36.497Z,22.75
2022-09-03T15:57:09.918Z,22.99
2022-09-03T15:59:54.625Z,23.27
2022-09-03T16:02:33.521Z,23.43
2022-09-03T16:05:13.906Z,23.48
2022-09-03T16:08:05.391Z,23.49
2022-09-03T16:11:06.822Z,23.79
2022-09-03T16:14:01.494Z,23.99
2022-09-03T16:16:49.707Z,24.07
2022-09-03T16:19:23.494Z,23.96
2022-09-03T16:21:56.132Z,23.92
2022-09-03T16:24:38.726Z,23.76
2022-09-03T16:27:09.685Z,23.76
2022-09-03T16:29:38.430Z,23.84
2022-09-03T16:32:21.285Z,23.91
2022-09-03T16:35:11.910Z,24.08
2022-09-03T16:37:57.082Z,24.09
2022-09-03T16:40:43.805Z,24.04
2022-09-03T16:43:40.982Z,23.91
2022-09-03T16:46:17.125Z,23.73
2022-09-03T16:49:00.986Z,23.76
2022-09-03T16:51:56.828Z,23.86
2022-09-03T16:54:40.386Z,23.82
2022-09-03T16:57:21.174Z,23.59
2022-09-03T16:59:47.752Z,23.27
2022-09-03T17:02:41.212Z,23.00
2022-09-03T17:05:39.623Z,22.84
2022-09-03T17:08:24.662Z,22.81
2022-09-03T17:11:03.115Z,22.51
2022-09-03T17:13:52.532Z,22.17
2022-09-03T17:16:43.407Z,21.86
2022-09-03T17:19:25.051Z,21.58
2022-09-03T17:22:22.089Z,21.35
2022-09-03T17:25:04.042Z,21.09
2022-09-03T17:27:48.782Z,20.85
2022-09-03T17:30:25.684Z,20.65
2022-09-03T17:33:29.295Z,20.52
2022-09-03T17:36:07.500Z,20.40
2022-09-03T17:39:08.044Z,20.30
2022-09-03T17:41:53.173Z,20.19
2022-09-03T17:44:38.605Z,20.10
2022-09-03T17:47:49.100Z,19.98
2022-09-03T17:50:24.987Z,19.82
2022-09-03T17:53:00.865Z,19.65
2022-09-03T17:55:36.206Z,19.56
2022-09-03T17:58:11.667Z,19.50
2022-09-03T18:00:51.887Z,19.40
2022-09-03T18:03:44.855Z,19.29
2022-09-03T18:06:45.815Z,19.19
2022-09-03T18:09:37.617Z,19.12
2022-09-03T18:12:19.768Z,19.05
2022-09-03T18:14:59.703Z,18.96
2022-09-03T18:17:39.558Z,18.89
2022-09-03T18:20:29.702Z,18.80
2022-09-03T18:23:25.663Z,18.77
2022-09-03T18:26:20.042Z,18.72
2022-09-03T18:29:54.177Z,18.65
2022-09-03T18:32:40.048Z,18.55
2022-09-03T18:35:27.263Z,18.46
2022-09-03T18:38:12.494Z,18.50
2022-09-03T18:41:07.412Z,18.50
2022-09-03T18:44:19.910Z,18.46
2022-09-03T18:50:39.823Z,18.38
2022-09-03T18:53:36.798Z,18.34
2022-09-03T18:56:42.877Z,18.35
2022-09-03T18:59:42.129Z,18.34
2022-09-03T19:02:41.543Z,18.31
2022-09-03T19:05:36.867Z,18.28
2022-09-03T19:08:35.576Z,18.24
2022-09-03T19:11:45.774Z,18.20
2022-09-03T19:14:59.509Z,18.17
2022-09-03T19:18:03.532Z,18.12
2022-09-03T19:20:50.615Z,18.08
2022-09-03T19:23:35.905Z,18.03
2022-09-03T19:26:34.200Z,17.96
2022-09-03T19:29:26.545Z,17.92
2022-09-03T19:32:19.860Z,17.90
2022-09-03T19:35:21.652Z,17.88
2022-09-03T19:38:52.422Z,17.88
2022-09-03T19:41:50.650Z,17.83
2022-09-03T19:44:35.864Z,17.78
2022-09-03T19:47:23.013Z,17.76
2022-09-03T19:50:33.366Z,17.73
2022-09-03T19:53:30.264Z,17.67
2022-09-03T19:56:23.638Z,17.64
2022-09-03T19:59:14.944Z,17.59
2022-09-03T20:02:01.181Z,17.55
2022-09-03T20:05:03.128Z,17.48
2022-09-03T20:07:48.806Z,17.39
2022-09-03T20:10:23.786Z,17.34
2022-09-03T20:13:13.352Z,17.29
2022-09-03T20:15:45.795Z,17.22
2022-09-03T20:18:23.024Z,17.13
2022-09-03T20:21:34.036Z,17.08
2022-09-03T20:24:25.009Z,17.03
2022-09-03T20:27:13.015Z,17.00
2022-09-03T20:30:01.797Z,16.98
2022-09-03T20:32:43.393Z,16.90
2022-09-03T20:35:28.150Z,16.86
2022-09-03T20:38:16.635Z,16.82
2022-09-03T20:41:27.885Z,16.82
2022-09-03T20:44:06.412Z,16.80
2022-09-03T20:46:42.665Z,16.75
2022-09-03T20:49:20.171Z,16.71
2022-09-03T20:52:06.156Z,16.68
2022-09-03T20:54:38.561Z,16.64
2022-09-03T20:57:33.885Z,16.61
2022-09-03T21:00:15.207Z,16.53
2022-09-03T21:03:00.363Z,16.52
2022-09-03T21:05:34.544Z,16.45
2022-09-03T21:08:01.068Z,16.42
2022-09-03T21:10:50.643Z,16.41
2022-09-03T21:13:52.332Z,16.40
2022-09-03T21:16:40.307Z,16.39
2022-09-03T21:19:25.469Z,16.44
2022-09-03T21:22:10.358Z,16.46
2022-09-03T21:24:46.233Z,16.49
2022-09-03T21:27:16.815Z,16.49
2022-09-03T21:29:53.233Z,16.58
2022-09-03T21:32:45.705Z,16.62
2022-09-03T21:35:32.944Z,16.68
2022-09-03T21:38:06.530Z,16.72
2022-09-03T21:40:36.462Z,16.78
2022-09-03T21:43:20.629Z,16.80
2022-09-03T21:45:57.088Z,16.80
2022-09-03T21:48:36.241Z,16.86
2022-09-03T21:51:27.543Z,16.88
2022-09-03T21:54:04.979Z,16.88
2022-09-03T21:56:43.676Z,16.86
2022-09-03T21:59:32.785Z,16.83
2022-09-03T22:01:59.888Z,16.83
2022-09-03T22:04:27.048Z,16.85
2022-09-03T22:07:11.938Z,16.93
2022-09-03T22:10:03.550Z,16.99
2022-09-03T22:12:37.220Z,17.04
2022-09-03T22:15:10.179Z,17.04
2022-09-03T22:17:46.949Z,17.01
2022-09-03T22:20:15.530Z,16.93
2022-09-03T22:23:01.701Z,16.97
2022-09-03T22:25:38.657Z,16.97
2022-09-03T22:28:52.383Z,16.97
2022-09-03T22:31:36.062Z,16.98
2022-09-03T22:34:08.492Z,16.99
2022-09-03T22:36:42.242Z,16.99
2022-09-03T22:39:14.581Z,17.06
2022-09-03T22:42:02.412Z,17.11
2022-09-03T22:44:51.836Z,17.11
2022-09-03T22:47:33.844Z,17.06
2022-09-03T22:50:22.410Z,16.97
2022-09-03T22:52:59.826Z,16.84
2022-09-03T22:55:26.699Z,16.80
2022-09-03T22:57:59.332Z,16.85
2022-09-03T23:00:27.551Z,16.97
2022-09-03T23:03:03.697Z,17.03
2022-09-03T23:05:36.719Z,17.16
2022-09-03T23:08:29.877Z,17.21
2022-09-03T23:10:56.917Z,17.24
2022-09-03T23:13:31.203Z,17.27
2022-09-03T23:16:22.520Z,17.32
2022-09-03T23:18:49.662Z,17.31
2022-09-03T23:21:23.139Z,17.30
2022-09-03T23:23:55.598Z,17.23
2022-09-03T23:26:43.621Z,17.20
2022-09-03T23:29:27.130Z,17.19
2022-09-03T23:31:57.577Z,17.19
2022-09-03T23:34:24.942Z,17.15
2022-09-03T23:37:33.878Z,17.16
2022-09-03T23:40:27.428Z,17.04
2022-09-03T23:43:12.387Z,17.00
2022-09-03T23:46:09.483Z,17.01
2022-09-03T23:48:47.998Z,16.98
2022-09-03T23:51:51.092Z,16.93
2022-09-03T23:54:20.451Z,16.96
2022-09-03T23:56:47.662Z,16.99
2022-09-03T23:59:40.810Z,17.05
